sensor_id;sensor_type;location;lat;lon;timestamp;P1;durP1;ratioP1;P2;durP2;ratioP2
6426;SDS011;3246;42.664;23.308;2023-06-04T00:00:40;3.92;;;3.63;;
6426;SDS011;3246;42.664;23.308;2023-06-04T00:03:07;3.75;;;3.45;;
6426;SDS011;3246;42.664;23.308;2023-06-04T00:05:35;3.50;;;2.85;;
6426;SDS011;3246;42.664;23.308;2023-06-04T00:08:01;3.75;;;3.05;;
6426;SDS011;3246;42.664;23.308;2023-06-04T00:10:28;3.05;;;2.85;;
6426;SDS011;3246;42.664;23.308;2023-06-04T00:12:55;3.15;;;2.95;;
6426;SDS011;3246;42.664;23.308;2023-06-04T00:15:21;2.47;;;2.28;;
6426;SDS011;3246;42.664;23.308;2023-06-04T00:17:47;3.08;;;2.88;;
6426;SDS011;3246;42.664;23.308;2023-06-04T00:20:14;3.33;;;3.03;;
6426;SDS011;3246;42.664;23.308;2023-06-04T00:22:42;2.55;;;2.35;;
6426;SDS011;3246;42.664;23.308;2023-06-04T00:25:09;3.25;;;2.50;;
6426;SDS011;3246;42.664;23.308;2023-06-04T00:27:35;3.17;;;2.72;;
6426;SDS011;3246;42.664;23.308;2023-06-04T00:30:02;2.75;;;2.55;;
6426;SDS011;3246;42.664;23.308;2023-06-04T00:32:29;4.05;;;2.30;;
6426;SDS011;3246;42.664;23.308;2023-06-04T00:34:56;2.20;;;2.10;;
6426;SDS011;3246;42.664;23.308;2023-06-04T00:37:23;2.58;;;2.47;;
6426;SDS011;3246;42.664;23.308;2023-06-04T00:39:52;2.40;;;2.30;;
6426;SDS011;3246;42.664;23.308;2023-06-04T00:42:18;2.88;;;2.67;;
6426;SDS011;3246;42.664;23.308;2023-06-04T00:44:45;4.10;;;2.63;;
6426;SDS011;3246;42.664;23.308;2023-06-04T00:47:12;4.10;;;2.95;;
6426;SDS011;3246;42.664;23.308;2023-06-04T00:49:39;2.67;;;2.47;;
6426;SDS011;3246;42.664;23.308;2023-06-04T00:52:06;2.20;;;2.03;;
6426;SDS011;3246;42.664;23.308;2023-06-04T00:54:34;2.50;;;2.40;;
6426;SDS011;3246;42.664;23.308;2023-06-04T00:57:02;2.63;;;2.47;;
6426;SDS011;3246;42.664;23.308;2023-06-04T00:59:29;3.15;;;2.85;;
6426;SDS011;3246;42.664;23.308;2023-06-04T01:01:58;2.83;;;2.63;;
6426;SDS011;3246;42.664;23.308;2023-06-04T01:04:27;3.28;;;2.97;;
6426;SDS011;3246;42.664;23.308;2023-06-04T01:06:56;3.60;;;3.25;;
6426;SDS011;3246;42.664;23.308;2023-06-04T01:09:24;2.50;;;2.38;;
6426;SDS011;3246;42.664;23.308;2023-06-04T01:11:51;2.95;;;2.70;;
6426;SDS011;3246;42.664;23.308;2023-06-04T01:14:18;3.47;;;2.95;;
6426;SDS011;3246;42.664;23.308;2023-06-04T01:16:46;3.65;;;3.10;;
6426;SDS011;3246;42.664;23.308;2023-06-04T01:19:22;3.03;;;2.80;;
6426;SDS011;3246;42.664;23.308;2023-06-04T01:21:56;3.72;;;3.00;;
6426;SDS011;3246;42.664;23.308;2023-06-04T01:24:28;2.83;;;2.65;;
6426;SDS011;3246;42.664;23.308;2023-06-04T01:26:58;5.07;;;2.92;;
6426;SDS011;3246;42.664;23.308;2023-06-04T01:29:27;5.15;;;2.70;;
6426;SDS011;3246;42.664;23.308;2023-06-04T01:31:54;2.67;;;2.35;;
6426;SDS011;3246;42.664;23.308;2023-06-04T01:34:21;6.32;;;2.80;;
6426;SDS011;3246;42.664;23.308;2023-06-04T01:36:48;2.97;;;2.75;;
6426;SDS011;3246;42.664;23.308;2023-06-04T01:39:14;3.88;;;2.67;;
6426;SDS011;3246;42.664;23.308;2023-06-04T01:41:41;2.72;;;2.53;;
6426;SDS011;3246;42.664;23.308;2023-06-04T01:44:08;2.72;;;2.55;;
6426;SDS011;3246;42.664;23.308;2023-06-04T01:46:36;3.45;;;3.20;;
6426;SDS011;3246;42.664;23.308;2023-06-04T01:49:03;3.28;;;3.08;;
6426;SDS011;3246;42.664;23.308;2023-06-04T01:51:31;3.08;;;2.88;;
6426;SDS011;3246;42.664;23.308;2023-06-04T01:53:57;2.83;;;2.53;;
6426;SDS011;3246;42.664;23.308;2023-06-04T01:56:25;3.10;;;2.90;;
6426;SDS011;3246;42.664;23.308;2023-06-04T01:58:52;2.47;;;2.25;;
6426;SDS011;3246;42.664;23.308;2023-06-04T02:01:18;3.83;;;2.47;;
6426;SDS011;3246;42.664;23.308;2023-06-04T02:03:48;2.90;;;2.70;;
6426;SDS011;3246;42.664;23.308;2023-06-04T02:06:16;3.38;;;2.70;;
6426;SDS011;3246;42.664;23.308;2023-06-04T02:08:42;2.30;;;2.13;;
6426;SDS011;3246;42.664;23.308;2023-06-04T02:11:09;2.50;;;2.30;;
6426;SDS011;3246;42.664;23.308;2023-06-04T02:13:35;2.70;;;2.50;;
6426;SDS011;3246;42.664;23.308;2023-06-04T02:16:02;2.28;;;2.08;;
6426;SDS011;3246;42.664;23.308;2023-06-04T02:18:28;4.15;;;2.25;;
6426;SDS011;3246;42.664;23.308;2023-06-04T02:20:56;2.58;;;2.38;;
6426;SDS011;3246;42.664;23.308;2023-06-04T02:23:23;2.45;;;2.10;;
6426;SDS011;3246;42.664;23.308;2023-06-04T02:25:49;3.15;;;2.35;;
6426;SDS011;3246;42.664;23.308;2023-06-04T02:28:16;2.05;;;1.85;;
6426;SDS011;3246;42.664;23.308;2023-06-04T02:30:43;2.33;;;2.22;;
6426;SDS011;3246;42.664;23.308;2023-06-04T02:33:09;2.55;;;2.35;;
6426;SDS011;3246;42.664;23.308;2023-06-04T02:35:36;2.92;;;2.25;;
6426;SDS011;3246;42.664;23.308;2023-06-04T02:38:04;2.70;;;2.50;;
6426;SDS011;3246;42.664;23.308;2023-06-04T02:40:31;2.55;;;2.35;;
6426;SDS011;3246;42.664;23.308;2023-06-04T02:42:57;3.15;;;2.22;;
6426;SDS011;3246;42.664;23.308;2023-06-04T02:45:24;2.25;;;2.05;;
6426;SDS011;3246;42.664;23.308;2023-06-04T02:47:51;3.42;;;2.70;;
6426;SDS011;3246;42.664;23.308;2023-06-04T02:50:17;2.92;;;2.20;;
6426;SDS011;3246;42.664;23.308;2023-06-04T02:52:44;2.70;;;2.50;;
6426;SDS011;3246;42.664;23.308;2023-06-04T02:55:12;2.45;;;2.25;;
6426;SDS011;3246;42.664;23.308;2023-06-04T02:57:39;2.92;;;2.58;;
6426;SDS011;3246;42.664;23.308;2023-06-04T03:00:06;4.30;;;2.05;;
6426;SDS011;3246;42.664;23.308;2023-06-04T03:02:37;2.40;;;2.30;;
6426;SDS011;3246;42.664;23.308;2023-06-04T03:05:04;2.65;;;2.45;;
6426;SDS011;3246;42.664;23.308;2023-06-04T03:07:31;2.42;;;2.33;;
6426;SDS011;3246;42.664;23.308;2023-06-04T03:09:58;3.10;;;2.90;;
6426;SDS011;3246;42.664;23.308;2023-06-04T03:12:26;2.22;;;2.13;;
6426;SDS011;3246;42.664;23.308;2023-06-04T03:14:52;2.70;;;2.50;;
6426;SDS011;3246;42.664;23.308;2023-06-04T03:17:19;3.85;;;2.35;;
6426;SDS011;3246;42.664;23.308;2023-06-04T03:19:45;3.40;;;2.60;;
6426;SDS011;3246;42.664;23.308;2023-06-04T03:22:13;3.70;;;2.70;;
6426;SDS011;3246;42.664;23.308;2023-06-04T03:24:39;2.50;;;2.30;;
6426;SDS011;3246;42.664;23.308;2023-06-04T03:27:07;2.83;;;2.63;;
6426;SDS011;3246;42.664;23.308;2023-06-04T03:29:35;2.70;;;2.60;;
6426;SDS011;3246;42.664;23.308;2023-06-04T03:32:02;3.05;;;2.85;;
6426;SDS011;3246;42.664;23.308;2023-06-04T03:34:29;2.83;;;2.63;;
6426;SDS011;3246;42.664;23.308;2023-06-04T03:36:56;5.40;;;2.20;;
6426;SDS011;3246;42.664;23.308;2023-06-04T03:39:23;2.35;;;2.20;;
6426;SDS011;3246;42.664;23.308;2023-06-04T03:41:49;2.60;;;2.50;;
6426;SDS011;3246;42.664;23.308;2023-06-04T03:44:16;2.75;;;2.55;;
6426;SDS011;3246;42.664;23.308;2023-06-04T03:46:45;3.75;;;2.63;;
6426;SDS011;3246;42.664;23.308;2023-06-04T03:49:12;3.72;;;2.65;;
6426;SDS011;3246;42.664;23.308;2023-06-04T03:51:39;3.50;;;3.20;;
6426;SDS011;3246;42.664;23.308;2023-06-04T03:54:06;3.25;;;2.97;;
6426;SDS011;3246;42.664;23.308;2023-06-04T03:56:32;3.47;;;3.17;;
6426;SDS011;3246;42.664;23.308;2023-06-04T03:58:59;2.90;;;2.70;;
6426;SDS011;3246;42.664;23.308;2023-06-04T04:01:25;2.70;;;2.45;;
6426;SDS011;3246;42.664;23.308;2023-06-04T04:03:54;2.83;;;2.45;;
6426;SDS011;3246;42.664;23.308;2023-06-04T04:06:21;6.38;;;2.92;;
6426;SDS011;3246;42.664;23.308;2023-06-04T04:08:48;4.25;;;2.80;;
6426;SDS011;3246;42.664;23.308;2023-06-04T04:11:14;2.80;;;2.60;;
6426;SDS011;3246;42.664;23.308;2023-06-04T04:13:41;3.20;;;2.90;;
6426;SDS011;3246;42.664;23.308;2023-06-04T04:16:08;2.88;;;2.67;;
6426;SDS011;3246;42.664;23.308;2023-06-04T04:18:35;3.50;;;3.20;;
6426;SDS011;3246;42.664;23.308;2023-06-04T04:21:04;4.20;;;3.60;;
6426;SDS011;3246;42.664;23.308;2023-06-04T04:23:31;3.83;;;3.53;;
6426;SDS011;3246;42.664;23.308;2023-06-04T04:25:57;4.53;;;3.20;;
6426;SDS011;3246;42.664;23.308;2023-06-04T04:28:24;3.65;;;3.45;;
6426;SDS011;3246;42.664;23.308;2023-06-04T04:30:53;3.80;;;3.40;;
6426;SDS011;3246;42.664;23.308;2023-06-04T04:33:21;4.13;;;3.83;;
6426;SDS011;3246;42.664;23.308;2023-06-04T04:35:49;4.20;;;3.90;;
6426;SDS011;3246;42.664;23.308;2023-06-04T04:38:17;6.07;;;3.28;;
6426;SDS011;3246;42.664;23.308;2023-06-04T04:40:44;4.65;;;4.22;;
6426;SDS011;3246;42.664;23.308;2023-06-04T04:43:12;4.85;;;4.45;;
6426;SDS011;3246;42.664;23.308;2023-06-04T04:45:38;4.47;;;3.88;;
6426;SDS011;3246;42.664;23.308;2023-06-04T04:48:05;4.28;;;3.97;;
6426;SDS011;3246;42.664;23.308;2023-06-04T04:50:32;4.10;;;3.80;;
6426;SDS011;3246;42.664;23.308;2023-06-04T04:52:58;4.28;;;3.97;;
6426;SDS011;3246;42.664;23.308;2023-06-04T04:55:26;3.75;;;3.45;;
6426;SDS011;3246;42.664;23.308;2023-06-04T04:57:52;5.15;;;4.47;;
6426;SDS011;3246;42.664;23.308;2023-06-04T05:00:19;4.35;;;4.03;;
6426;SDS011;3246;42.664;23.308;2023-06-04T05:02:45;4.20;;;3.63;;
6426;SDS011;3246;42.664;23.308;2023-06-04T05:05:12;4.03;;;3.72;;
6426;SDS011;3246;42.664;23.308;2023-06-04T05:07:38;4.85;;;4.00;;
6426;SDS011;3246;42.664;23.308;2023-06-04T05:10:05;6.03;;;3.72;;
6426;SDS011;3246;42.664;23.308;2023-06-04T05:12:33;4.07;;;3.78;;
6426;SDS011;3246;42.664;23.308;2023-06-04T05:15:00;4.78;;;3.78;;
6426;SDS011;3246;42.664;23.308;2023-06-04T05:17:28;5.47;;;4.97;;
6426;SDS011;3246;42.664;23.308;2023-06-04T05:19:56;4.82;;;4.28;;
6426;SDS011;3246;42.664;23.308;2023-06-04T05:22:30;5.20;;;4.80;;
6426;SDS011;3246;42.664;23.308;2023-06-04T05:24:58;4.75;;;4.25;;
6426;SDS011;3246;42.664;23.308;2023-06-04T05:27:25;4.80;;;4.40;;
6426;SDS011;3246;42.664;23.308;2023-06-04T05:29:54;6.05;;;4.28;;
6426;SDS011;3246;42.664;23.308;2023-06-04T05:32:20;4.90;;;4.50;;
6426;SDS011;3246;42.664;23.308;2023-06-04T05:34:49;18.05;;;5.70;;
6426;SDS011;3246;42.664;23.308;2023-06-04T05:37:15;10.75;;;5.10;;
6426;SDS011;3246;42.664;23.308;2023-06-04T05:39:42;5.82;;;4.50;;
6426;SDS011;3246;42.664;23.308;2023-06-04T05:42:09;7.05;;;4.72;;
6426;SDS011;3246;42.664;23.308;2023-06-04T05:44:35;4.70;;;4.30;;
6426;SDS011;3246;42.664;23.308;2023-06-04T05:47:03;5.60;;;4.78;;
6426;SDS011;3246;42.664;23.308;2023-06-04T05:49:30;4.22;;;3.92;;
6426;SDS011;3246;42.664;23.308;2023-06-04T05:51:56;5.68;;;5.10;;
6426;SDS011;3246;42.664;23.308;2023-06-04T05:54:23;6.65;;;4.95;;
6426;SDS011;3246;42.664;23.308;2023-06-04T05:56:49;5.05;;;4.65;;
6426;SDS011;3246;42.664;23.308;2023-06-04T05:59:16;4.57;;;4.18;;
6426;SDS011;3246;42.664;23.308;2023-06-04T06:01:42;11.27;;;4.53;;
6426;SDS011;3246;42.664;23.308;2023-06-04T06:04:11;11.32;;;5.47;;
6426;SDS011;3246;42.664;23.308;2023-06-04T06:06:37;5.32;;;4.63;;
6426;SDS011;3246;42.664;23.308;2023-06-04T06:09:04;5.93;;;5.00;;
6426;SDS011;3246;42.664;23.308;2023-06-04T06:11:31;7.97;;;4.93;;
6426;SDS011;3246;42.664;23.308;2023-06-04T06:13:57;4.68;;;4.28;;
6426;SDS011;3246;42.664;23.308;2023-06-04T06:16:23;7.50;;;5.25;;
6426;SDS011;3246;42.664;23.308;2023-06-04T06:18:50;5.57;;;5.10;;
6426;SDS011;3246;42.664;23.308;2023-06-04T06:21:18;6.05;;;5.40;;
6426;SDS011;3246;42.664;23.308;2023-06-04T06:23:45;7.00;;;4.72;;
6426;SDS011;3246;42.664;23.308;2023-06-04T06:26:11;6.60;;;5.60;;
6426;SDS011;3246;42.664;23.308;2023-06-04T06:28:38;7.15;;;5.35;;
6426;SDS011;3246;42.664;23.308;2023-06-04T06:31:05;5.15;;;4.65;;
6426;SDS011;3246;42.664;23.308;2023-06-04T06:33:32;6.65;;;5.28;;
6426;SDS011;3246;42.664;23.308;2023-06-04T06:35:58;6.47;;;4.75;;
6426;SDS011;3246;42.664;23.308;2023-06-04T06:38:27;8.70;;;4.95;;
6426;SDS011;3246;42.664;23.308;2023-06-04T06:40:54;7.50;;;5.38;;
6426;SDS011;3246;42.664;23.308;2023-06-04T06:43:20;4.20;;;3.80;;
6426;SDS011;3246;42.664;23.308;2023-06-04T06:45:46;4.47;;;4.10;;
6426;SDS011;3246;42.664;23.308;2023-06-04T06:48:13;5.25;;;4.78;;
6426;SDS011;3246;42.664;23.308;2023-06-04T06:50:41;8.73;;;5.68;;
6426;SDS011;3246;42.664;23.308;2023-06-04T06:53:07;7.53;;;4.45;;
6426;SDS011;3246;42.664;23.308;2023-06-04T06:55:35;5.40;;;4.93;;
6426;SDS011;3246;42.664;23.308;2023-06-04T06:58:02;5.55;;;5.03;;
6426;SDS011;3246;42.664;23.308;2023-06-04T07:00:28;9.23;;;4.82;;
6426;SDS011;3246;42.664;23.308;2023-06-04T07:02:55;6.38;;;4.75;;
6426;SDS011;3246;42.664;23.308;2023-06-04T07:05:21;5.38;;;4.78;;
6426;SDS011;3246;42.664;23.308;2023-06-04T07:07:48;7.80;;;5.53;;
6426;SDS011;3246;42.664;23.308;2023-06-04T07:10:14;4.95;;;4.53;;
6426;SDS011;3246;42.664;23.308;2023-06-04T07:12:42;4.63;;;4.32;;
6426;SDS011;3246;42.664;23.308;2023-06-04T07:15:09;4.35;;;4.05;;
6426;SDS011;3246;42.664;23.308;2023-06-04T07:17:36;7.10;;;4.55;;
6426;SDS011;3246;42.664;23.308;2023-06-04T07:20:02;4.82;;;4.43;;
6426;SDS011;3246;42.664;23.308;2023-06-04T07:22:32;6.03;;;4.57;;
6426;SDS011;3246;42.664;23.308;2023-06-04T07:24:58;7.07;;;5.28;;
6426;SDS011;3246;42.664;23.308;2023-06-04T07:27:25;8.50;;;5.13;;
6426;SDS011;3246;42.664;23.308;2023-06-04T07:29:53;5.65;;;5.03;;
6426;SDS011;3246;42.664;23.308;2023-06-04T07:32:19;5.72;;;5.20;;
6426;SDS011;3246;42.664;23.308;2023-06-04T07:34:46;9.32;;;6.22;;
6426;SDS011;3246;42.664;23.308;2023-06-04T07:37:12;7.20;;;6.03;;
6426;SDS011;3246;42.664;23.308;2023-06-04T07:39:40;6.50;;;5.28;;
6426;SDS011;3246;42.664;23.308;2023-06-04T07:42:07;9.43;;;6.57;;
6426;SDS011;3246;42.664;23.308;2023-06-04T07:44:33;6.28;;;5.38;;
6426;SDS011;3246;42.664;23.308;2023-06-04T07:47:01;5.93;;;5.43;;
6426;SDS011;3246;42.664;23.308;2023-06-04T07:49:27;9.65;;;6.18;;
6426;SDS011;3246;42.664;23.308;2023-06-04T07:51:54;7.68;;;5.85;;
6426;SDS011;3246;42.664;23.308;2023-06-04T07:54:21;10.10;;;6.88;;
6426;SDS011;3246;42.664;23.308;2023-06-04T07:56:47;6.63;;;5.32;;
6426;SDS011;3246;42.664;23.308;2023-06-04T07:59:14;6.43;;;5.82;;
6426;SDS011;3246;42.664;23.308;2023-06-04T08:01:40;6.78;;;5.90;;
6426;SDS011;3246;42.664;23.308;2023-06-04T08:04:08;7.75;;;6.32;;
6426;SDS011;3246;42.664;23.308;2023-06-04T08:06:35;6.85;;;6.28;;
6426;SDS011;3246;42.664;23.308;2023-06-04T08:09:04;8.77;;;7.70;;
6426;SDS011;3246;42.664;23.308;2023-06-04T08:11:32;8.10;;;6.57;;
6426;SDS011;3246;42.664;23.308;2023-06-04T08:13:58;8.98;;;6.85;;
6426;SDS011;3246;42.664;23.308;2023-06-04T08:16:25;8.07;;;7.28;;
6426;SDS011;3246;42.664;23.308;2023-06-04T08:18:51;8.02;;;6.35;;
6426;SDS011;3246;42.664;23.308;2023-06-04T08:21:26;8.48;;;6.97;;
6426;SDS011;3246;42.664;23.308;2023-06-04T08:23:53;6.88;;;6.28;;
6426;SDS011;3246;42.664;23.308;2023-06-04T08:26:20;8.35;;;7.25;;
6426;SDS011;3246;42.664;23.308;2023-06-04T08:28:47;11.55;;;7.00;;
6426;SDS011;3246;42.664;23.308;2023-06-04T08:31:14;9.15;;;7.68;;
6426;SDS011;3246;42.664;23.308;2023-06-04T08:33:41;7.25;;;6.57;;
6426;SDS011;3246;42.664;23.308;2023-06-04T08:36:08;9.15;;;7.93;;
6426;SDS011;3246;42.664;23.308;2023-06-04T08:38:36;10.07;;;7.72;;
6426;SDS011;3246;42.664;23.308;2023-06-04T08:41:05;12.65;;;8.68;;
6426;SDS011;3246;42.664;23.308;2023-06-04T08:43:36;9.27;;;7.95;;
6426;SDS011;3246;42.664;23.308;2023-06-04T08:46:03;8.60;;;7.72;;
6426;SDS011;3246;42.664;23.308;2023-06-04T08:48:33;10.35;;;7.30;;
6426;SDS011;3246;42.664;23.308;2023-06-04T08:51:00;9.15;;;8.25;;
6426;SDS011;3246;42.664;23.308;2023-06-04T08:53:29;9.50;;;6.78;;
6426;SDS011;3246;42.664;23.308;2023-06-04T08:55:57;8.85;;;7.53;;
6426;SDS011;3246;42.664;23.308;2023-06-04T08:58:24;10.63;;;7.45;;
6426;SDS011;3246;42.664;23.308;2023-06-04T09:00:51;12.43;;;8.65;;
6426;SDS011;3246;42.664;23.308;2023-06-04T09:03:17;11.45;;;8.20;;
6426;SDS011;3246;42.664;23.308;2023-06-04T09:05:46;9.93;;;8.07;;
6426;SDS011;3246;42.664;23.308;2023-06-04T09:08:14;8.52;;;7.53;;
6426;SDS011;3246;42.664;23.308;2023-06-04T09:10:43;9.88;;;8.20;;
6426;SDS011;3246;42.664;23.308;2023-06-04T09:13:12;9.75;;;8.05;;
6426;SDS011;3246;42.664;23.308;2023-06-04T09:15:40;7.63;;;6.88;;
6426;SDS011;3246;42.664;23.308;2023-06-04T09:18:06;14.52;;;9.10;;
6426;SDS011;3246;42.664;23.308;2023-06-04T09:20:33;11.88;;;8.45;;
6426;SDS011;3246;42.664;23.308;2023-06-04T09:22:59;11.30;;;7.18;;
6426;SDS011;3246;42.664;23.308;2023-06-04T09:25:26;9.13;;;7.28;;
6426;SDS011;3246;42.664;23.308;2023-06-04T09:27:53;10.77;;;9.18;;
6426;SDS011;3246;42.664;23.308;2023-06-04T09:30:22;9.95;;;8.63;;
6426;SDS011;3246;42.664;23.308;2023-06-04T09:32:48;23.65;;;9.27;;
6426;SDS011;3246;42.664;23.308;2023-06-04T09:35:15;11.15;;;8.77;;
6426;SDS011;3246;42.664;23.308;2023-06-04T09:37:42;13.25;;;8.80;;
6426;SDS011;3246;42.664;23.308;2023-06-04T09:40:09;8.52;;;7.32;;
6426;SDS011;3246;42.664;23.308;2023-06-04T09:42:43;16.00;;;10.55;;
6426;SDS011;3246;42.664;23.308;2023-06-04T09:45:10;18.20;;;10.32;;
6426;SDS011;3246;42.664;23.308;2023-06-04T09:47:41;12.30;;;10.35;;
6426;SDS011;3246;42.664;23.308;2023-06-04T09:50:09;15.45;;;10.70;;
6426;SDS011;3246;42.664;23.308;2023-06-04T09:52:35;12.55;;;9.27;;
6426;SDS011;3246;42.664;23.308;2023-06-04T09:55:02;10.80;;;9.13;;
6426;SDS011;3246;42.664;23.308;2023-06-04T09:57:29;10.75;;;9.75;;
6426;SDS011;3246;42.664;23.308;2023-06-04T09:59:57;13.18;;;9.98;;
6426;SDS011;3246;42.664;23.308;2023-06-04T10:02:24;9.05;;;8.15;;
6426;SDS011;3246;42.664;23.308;2023-06-04T10:04:56;10.85;;;8.65;;
6426;SDS011;3246;42.664;23.308;2023-06-04T10:07:25;11.35;;;9.30;;
6426;SDS011;3246;42.664;23.308;2023-06-04T10:09:52;10.07;;;9.00;;
6426;SDS011;3246;42.664;23.308;2023-06-04T10:12:20;9.90;;;8.45;;
6426;SDS011;3246;42.664;23.308;2023-06-04T10:14:50;10.40;;;8.75;;
6426;SDS011;3246;42.664;23.308;2023-06-04T10:17:18;9.10;;;8.20;;
6426;SDS011;3246;42.664;23.308;2023-06-04T10:19:47;10.15;;;7.47;;
6426;SDS011;3246;42.664;23.308;2023-06-04T10:22:15;11.65;;;8.73;;
6426;SDS011;3246;42.664;23.308;2023-06-04T10:24:43;12.80;;;7.78;;
6426;SDS011;3246;42.664;23.308;2023-06-04T10:27:09;11.25;;;7.30;;
6426;SDS011;3246;42.664;23.308;2023-06-04T10:29:38;9.30;;;7.85;;
6426;SDS011;3246;42.664;23.308;2023-06-04T10:32:05;13.50;;;7.88;;
6426;SDS011;3246;42.664;23.308;2023-06-04T10:34:31;8.23;;;6.88;;
6426;SDS011;3246;42.664;23.308;2023-06-04T10:36:58;10.10;;;6.60;;
6426;SDS011;3246;42.664;23.308;2023-06-04T10:39:27;7.30;;;6.65;;
6426;SDS011;3246;42.664;23.308;2023-06-04T10:41:57;7.70;;;7.00;;
6426;SDS011;3246;42.664;23.308;2023-06-04T10:44:24;6.53;;;5.93;;
6426;SDS011;3246;42.664;23.308;2023-06-04T10:46:50;8.07;;;6.45;;
6426;SDS011;3246;42.664;23.308;2023-06-04T10:49:25;12.35;;;7.78;;
6426;SDS011;3246;42.664;23.308;2023-06-04T10:51:52;7.32;;;6.60;;
6426;SDS011;3246;42.664;23.308;2023-06-04T10:54:22;8.35;;;7.57;;
6426;SDS011;3246;42.664;23.308;2023-06-04T10:56:50;7.72;;;7.03;;
6426;SDS011;3246;42.664;23.308;2023-06-04T10:59:17;8.02;;;7.25;;
6426;SDS011;3246;42.664;23.308;2023-06-04T11:01:44;10.70;;;7.97;;
6426;SDS011;3246;42.664;23.308;2023-06-04T11:04:20;8.43;;;7.55;;
6426;SDS011;3246;42.664;23.308;2023-06-04T11:06:47;8.65;;;7.38;;
6426;SDS011;3246;42.664;23.308;2023-06-04T11:09:14;15.50;;;8.00;;
6426;SDS011;3246;42.664;23.308;2023-06-04T11:11:41;8.73;;;7.60;;
6426;SDS011;3246;42.664;23.308;2023-06-04T11:14:10;8.32;;;7.53;;
6426;SDS011;3246;42.664;23.308;2023-06-04T11:16:37;8.13;;;7.32;;
6426;SDS011;3246;42.664;23.308;2023-06-04T11:19:04;12.05;;;7.78;;
6426;SDS011;3246;42.664;23.308;2023-06-04T11:21:33;9.32;;;7.75;;
6426;SDS011;3246;42.664;23.308;2023-06-04T11:24:01;9.25;;;7.70;;
6426;SDS011;3246;42.664;23.308;2023-06-04T11:26:29;8.32;;;7.53;;
6426;SDS011;3246;42.664;23.308;2023-06-04T11:28:56;10.63;;;7.60;;
6426;SDS011;3246;42.664;23.308;2023-06-04T11:31:24;9.13;;;7.97;;
6426;SDS011;3246;42.664;23.308;2023-06-04T11:33:51;10.57;;;7.00;;
6426;SDS011;3246;42.664;23.308;2023-06-04T11:36:23;7.88;;;7.13;;
6426;SDS011;3246;42.664;23.308;2023-06-04T11:38:54;8.82;;;7.63;;
6426;SDS011;3246;42.664;23.308;2023-06-04T11:41:21;8.13;;;7.53;;
6426;SDS011;3246;42.664;23.308;2023-06-04T11:43:48;8.32;;;7.63;;
6426;SDS011;3246;42.664;23.308;2023-06-04T11:46:15;7.63;;;6.97;;
6426;SDS011;3246;42.664;23.308;2023-06-04T11:48:43;9.85;;;7.63;;
6426;SDS011;3246;42.664;23.308;2023-06-04T11:51:10;10.25;;;8.05;;
6426;SDS011;3246;42.664;23.308;2023-06-04T11:53:36;9.57;;;8.68;;
6426;SDS011;3246;42.664;23.308;2023-06-04T11:56:03;9.10;;;8.27;;
6426;SDS011;3246;42.664;23.308;2023-06-04T11:58:30;8.05;;;7.35;;
6426;SDS011;3246;42.664;23.308;2023-06-04T12:00:57;8.38;;;7.78;;
6426;SDS011;3246;42.664;23.308;2023-06-04T12:03:36;9.40;;;8.65;;
6426;SDS011;3246;42.664;23.308;2023-06-04T12:06:14;10.20;;;9.20;;
6426;SDS011;3246;42.664;23.308;2023-06-04T12:08:47;8.40;;;7.65;;
6426;SDS011;3246;42.664;23.308;2023-06-04T12:11:24;9.43;;;8.43;;
6426;SDS011;3246;42.664;23.308;2023-06-04T12:13:51;9.07;;;8.13;;
6426;SDS011;3246;42.664;23.308;2023-06-04T12:16:18;9.23;;;8.43;;
6426;SDS011;3246;42.664;23.308;2023-06-04T12:18:44;8.23;;;7.40;;
6426;SDS011;3246;42.664;23.308;2023-06-04T12:21:17;8.35;;;7.70;;
6426;SDS011;3246;42.664;23.308;2023-06-04T12:23:45;9.13;;;8.27;;
6426;SDS011;3246;42.664;23.308;2023-06-04T12:26:19;9.75;;;8.75;;
6426;SDS011;3246;42.664;23.308;2023-06-04T12:28:57;8.30;;;7.50;;
6426;SDS011;3246;42.664;23.308;2023-06-04T12:31:24;10.90;;;9.43;;
6426;SDS011;3246;42.664;23.308;2023-06-04T12:33:50;9.07;;;8.35;;
6426;SDS011;3246;42.664;23.308;2023-06-04T12:36:18;10.95;;;9.07;;
6426;SDS011;3246;42.664;23.308;2023-06-04T12:38:45;9.25;;;8.35;;
6426;SDS011;3246;42.664;23.308;2023-06-04T12:41:11;9.57;;;8.88;;
6426;SDS011;3246;42.664;23.308;2023-06-04T12:43:38;8.32;;;7.65;;
6426;SDS011;3246;42.664;23.308;2023-06-04T12:46:04;9.23;;;8.20;;
6426;SDS011;3246;42.664;23.308;2023-06-04T12:48:31;8.55;;;7.85;;
6426;SDS011;3246;42.664;23.308;2023-06-04T12:50:58;8.80;;;8.10;;
6426;SDS011;3246;42.664;23.308;2023-06-04T12:53:26;8.70;;;7.80;;
6426;SDS011;3246;42.664;23.308;2023-06-04T12:55:53;9.50;;;8.68;;
6426;SDS011;3246;42.664;23.308;2023-06-04T12:58:19;9.27;;;8.38;;
6426;SDS011;3246;42.664;23.308;2023-06-04T13:00:46;8.88;;;8.02;;
6426;SDS011;3246;42.664;23.308;2023-06-04T13:03:12;9.38;;;8.55;;
6426;SDS011;3246;42.664;23.308;2023-06-04T13:05:39;9.30;;;8.45;;
6426;SDS011;3246;42.664;23.308;2023-06-04T13:08:05;8.60;;;7.70;;
6426;SDS011;3246;42.664;23.308;2023-06-04T13:10:33;8.57;;;7.60;;
6426;SDS011;3246;42.664;23.308;2023-06-04T13:13:00;9.20;;;8.40;;
6426;SDS011;3246;42.664;23.308;2023-06-04T13:15:27;7.55;;;6.95;;
6426;SDS011;3246;42.664;23.308;2023-06-04T13:17:54;7.80;;;7.20;;
6426;SDS011;3246;42.664;23.308;2023-06-04T13:20:21;7.70;;;7.10;;
6426;SDS011;3246;42.664;23.308;2023-06-04T13:22:47;7.93;;;7.03;;
6426;SDS011;3246;42.664;23.308;2023-06-04T13:25:14;7.53;;;6.85;;
6426;SDS011;3246;42.664;23.308;2023-06-04T13:27:43;7.55;;;6.97;;
6426;SDS011;3246;42.664;23.308;2023-06-04T13:30:10;7.72;;;7.03;;
6426;SDS011;3246;42.664;23.308;2023-06-04T13:32:37;9.10;;;6.70;;
6426;SDS011;3246;42.664;23.308;2023-06-04T13:35:04;7.22;;;6.57;;
6426;SDS011;3246;42.664;23.308;2023-06-04T13:37:31;6.72;;;6.20;;
6426;SDS011;3246;42.664;23.308;2023-06-04T13:39:57;6.25;;;5.85;;
6426;SDS011;3246;42.664;23.308;2023-06-04T13:42:24;7.13;;;6.43;;
6426;SDS011;3246;42.664;23.308;2023-06-04T13:44:52;8.48;;;6.15;;
6426;SDS011;3246;42.664;23.308;2023-06-04T13:47:18;6.20;;;5.80;;
6426;SDS011;3246;42.664;23.308;2023-06-04T13:49:46;7.22;;;6.55;;
6426;SDS011;3246;42.664;23.308;2023-06-04T13:52:13;6.75;;;6.20;;
6426;SDS011;3246;42.664;23.308;2023-06-04T13:54:39;6.90;;;6.20;;
6426;SDS011;3246;42.664;23.308;2023-06-04T13:57:06;7.43;;;5.90;;
6426;SDS011;3246;42.664;23.308;2023-06-04T13:59:36;7.15;;;6.45;;
6426;SDS011;3246;42.664;23.308;2023-06-04T14:02:04;6.25;;;5.57;;
6426;SDS011;3246;42.664;23.308;2023-06-04T14:04:31;8.07;;;6.20;;
6426;SDS011;3246;42.664;23.308;2023-06-04T14:06:57;7.45;;;6.60;;
6426;SDS011;3246;42.664;23.308;2023-06-04T14:09:24;5.60;;;5.10;;
6426;SDS011;3246;42.664;23.308;2023-06-04T14:11:50;5.78;;;5.38;;
6426;SDS011;3246;42.664;23.308;2023-06-04T14:14:17;7.35;;;6.38;;
6426;SDS011;3246;42.664;23.308;2023-06-04T14:16:44;7.72;;;6.93;;
6426;SDS011;3246;42.664;23.308;2023-06-04T14:19:11;7.70;;;6.35;;
6426;SDS011;3246;42.664;23.308;2023-06-04T14:21:38;8.23;;;6.60;;
6426;SDS011;3246;42.664;23.308;2023-06-04T14:24:05;7.57;;;5.75;;
6426;SDS011;3246;42.664;23.308;2023-06-04T14:26:31;11.52;;;7.18;;
6426;SDS011;3246;42.664;23.308;2023-06-04T14:28:58;8.02;;;7.20;;
6426;SDS011;3246;42.664;23.308;2023-06-04T14:31:25;10.35;;;8.63;;
6426;SDS011;3246;42.664;23.308;2023-06-04T14:33:51;15.32;;;7.97;;
6426;SDS011;3246;42.664;23.308;2023-06-04T14:36:19;7.05;;;6.45;;
6426;SDS011;3246;42.664;23.308;2023-06-04T14:38:46;7.82;;;7.13;;
6426;SDS011;3246;42.664;23.308;2023-06-04T14:41:12;6.65;;;6.15;;
6426;SDS011;3246;42.664;23.308;2023-06-04T14:43:39;7.45;;;6.78;;
6426;SDS011;3246;42.664;23.308;2023-06-04T14:46:06;8.05;;;7.40;;
6426;SDS011;3246;42.664;23.308;2023-06-04T14:48:32;7.97;;;7.35;;
6426;SDS011;3246;42.664;23.308;2023-06-04T14:50:59;7.65;;;6.95;;
6426;SDS011;3246;42.664;23.308;2023-06-04T14:53:26;7.43;;;6.70;;
6426;SDS011;3246;42.664;23.308;2023-06-04T14:55:53;9.60;;;7.68;;
6426;SDS011;3246;42.664;23.308;2023-06-04T14:58:19;7.75;;;7.15;;
6426;SDS011;3246;42.664;23.308;2023-06-04T15:00:46;7.63;;;6.90;;